This is the latest recevied weather packets stored in our database for station/object DB0LS-15. If no packets are shown the sender has not sent any weather packets the latest 10 day(s).
| Time | Temp. | Humidity | Pressure | Rain* | Wind** | Luminosity | Snow |
|---|---|---|---|---|---|---|---|
| 1777839952 | 21.67° C | 38% | 992.4 hPa | 0 mm | - | - | - |
| 1777839348 | 21.11° C | 39% | 992.3 hPa | 0 mm | - | - | - |
| 1777838745 | 21.11° C | 39% | 992.4 hPa | 0 mm | - | - | - |
| 1777838141 | 21.11° C | 39% | 992.5 hPa | 0 mm | - | - | - |
| 1777836330 | 21.67° C | 38% | 992.4 hPa | 0 mm | - | - | - |
| 1777833371 | 22.78° C | 34% | 992.4 hPa | 0 mm | - | - | - |
| 1777832767 | 23.33° C | 33% | 992.2 hPa | 0 mm | - | - | - |
| 1777829145 | 25° C | 30% | 992.3 hPa | 0 mm | - | - | - |
| 1777828541 | 25° C | 29% | 992.3 hPa | 0 mm | - | - | - |
| 1777823137 | 27.78° C | 28% | 992.4 hPa | 0 mm | - | - | - |
| 1777821326 | 27.78° C | 27% | 992.9 hPa | 0 mm | - | - | - |
| 1777817160 | 27.78° C | 30% | 993.4 hPa | 0 mm | - | - | - |
| 1777816556 | 27.78° C | 30% | 993.6 hPa | 0 mm | - | - | - |
| 1777814141 | 27.22° C | 30% | 994.1 hPa | 0 mm | - | - | - |
| 1777809974 | 27.22° C | 30% | 994.9 hPa | 0 mm | - | - | - |
| 1777808163 | 26.67° C | 31% | 995.1 hPa | 0 mm | - | - | - |
| 1777807559 | 26.67° C | 31% | 995.2 hPa | 0 mm | - | - | - |
| 1777806955 | 26.11° C | 31% | 995.2 hPa | 0 mm | - | - | - |
| 1777805748 | 25.56° C | 33% | 995.5 hPa | 0 mm | - | - | - |
| 1777803333 | 25° C | 34% | 995.9 hPa | 0 mm | - | - | - |
| 1777802729 | 25.56° C | 35% | 996.1 hPa | 0 mm | - | - | - |
| 1777802125 | 25° C | 35% | 996.2 hPa | 0 mm | - | - | - |
| 1777800917 | 25° C | 35% | 996.4 hPa | 0 mm | - | - | - |
| 1777800374 | 23.89° C | 36% | 996.4 hPa | 0 mm | - | - | - |
| 1777799770 | 23.89° C | 36% | 996.5 hPa | 0 mm | - | - | - |
* Rain latest hour (hover to see other rain measurements)
** Current wind speed in m/s (hover to see current wind gust speed)